sensor_id;sensor_type;location;lat;lon;timestamp;P1;durP1;ratioP1;P2;durP2;ratioP2
70806;SDS011;58882;52.170;5.386;2023-05-08T00:03:53;12.68;;;9.25;;
70806;SDS011;58882;52.170;5.386;2023-05-08T00:06:47;12.85;;;9.38;;
70806;SDS011;58882;52.170;5.386;2023-05-08T00:09:20;13.82;;;9.20;;
70806;SDS011;58882;52.170;5.386;2023-05-08T00:14:54;13.00;;;9.55;;
70806;SDS011;58882;52.170;5.386;2023-05-08T00:17:41;13.32;;;9.82;;
70806;SDS011;58882;52.170;5.386;2023-05-08T00:20:14;13.32;;;9.25;;
70806;SDS011;58882;52.170;5.386;2023-05-08T00:25:41;13.75;;;9.05;;
70806;SDS011;58882;52.170;5.386;2023-05-08T00:31:08;13.93;;;9.60;;
70806;SDS011;58882;52.170;5.386;2023-05-08T00:34:02;13.32;;;9.15;;
70806;SDS011;58882;52.170;5.386;2023-05-08T00:36:42;11.57;;;8.48;;
70806;SDS011;58882;52.170;5.386;2023-05-08T00:39:29;11.68;;;8.38;;
70806;SDS011;58882;52.170;5.386;2023-05-08T00:42:02;12.10;;;9.00;;
70806;SDS011;58882;52.170;5.386;2023-05-08T00:44:56;12.20;;;9.50;;
70806;SDS011;58882;52.170;5.386;2023-05-08T00:50:23;11.77;;;8.57;;
70806;SDS011;58882;52.170;5.386;2023-05-08T00:52:57;13.02;;;9.38;;
70806;SDS011;58882;52.170;5.386;2023-05-08T00:55:53;12.27;;;8.95;;
70806;SDS011;58882;52.170;5.386;2023-05-08T00:58:33;25.58;;;9.10;;
70806;SDS011;58882;52.170;5.386;2023-05-08T01:01:27;12.40;;;8.48;;
70806;SDS011;58882;52.170;5.386;2023-05-08T01:04:02;12.30;;;8.80;;
70806;SDS011;58882;52.170;5.386;2023-05-08T01:06:57;13.48;;;8.45;;
70806;SDS011;58882;52.170;5.386;2023-05-08T01:09:31;11.10;;;8.52;;
70806;SDS011;58882;52.170;5.386;2023-05-08T01:15:46;13.90;;;8.82;;
70806;SDS011;58882;52.170;5.386;2023-05-08T01:24:41;10.65;;;7.53;;
70806;SDS011;58882;52.170;5.386;2023-05-08T01:31:06;10.25;;;7.10;;
70806;SDS011;58882;52.170;5.386;2023-05-08T01:34:20;10.57;;;7.80;;
70806;SDS011;58882;52.170;5.386;2023-05-08T01:37:05;11.98;;;7.90;;
70806;SDS011;58882;52.170;5.386;2023-05-08T01:40:03;11.27;;;7.63;;
70806;SDS011;58882;52.170;5.386;2023-05-08T01:42:49;10.77;;;7.68;;
70806;SDS011;58882;52.170;5.386;2023-05-08T01:48:26;11.60;;;8.30;;
70806;SDS011;58882;52.170;5.386;2023-05-08T01:51:24;12.50;;;7.47;;
70806;SDS011;58882;52.170;5.386;2023-05-08T01:54:08;12.93;;;7.97;;
70806;SDS011;58882;52.170;5.386;2023-05-08T01:57:00;11.43;;;7.78;;
70806;SDS011;58882;52.170;5.386;2023-05-08T01:59:41;12.77;;;8.20;;
70806;SDS011;58882;52.170;5.386;2023-05-08T02:02:30;9.57;;;7.20;;
70806;SDS011;58882;52.170;5.386;2023-05-08T02:05:12;13.02;;;7.60;;
70806;SDS011;58882;52.170;5.386;2023-05-08T02:08:01;9.95;;;7.30;;
70806;SDS011;58882;52.170;5.386;2023-05-08T02:10:36;11.90;;;8.10;;
70806;SDS011;58882;52.170;5.386;2023-05-08T02:13:31;12.50;;;8.23;;
70806;SDS011;58882;52.170;5.386;2023-05-08T02:16:07;10.95;;;7.95;;
70806;SDS011;58882;52.170;5.386;2023-05-08T02:19:04;10.82;;;7.32;;
70806;SDS011;58882;52.170;5.386;2023-05-08T02:21:39;10.23;;;7.30;;
70806;SDS011;58882;52.170;5.386;2023-05-08T02:24:34;11.15;;;7.10;;
70806;SDS011;58882;52.170;5.386;2023-05-08T02:27:15;13.93;;;7.47;;
70806;SDS011;58882;52.170;5.386;2023-05-08T02:30:03;10.85;;;8.02;;
70806;SDS011;58882;52.170;5.386;2023-05-08T02:32:44;11.88;;;7.55;;
70806;SDS011;58882;52.170;5.386;2023-05-08T02:35:33;12.65;;;8.63;;
70806;SDS011;58882;52.170;5.386;2023-05-08T02:38:14;12.43;;;8.40;;
70806;SDS011;58882;52.170;5.386;2023-05-08T02:41:03;12.15;;;8.57;;
70806;SDS011;58882;52.170;5.386;2023-05-08T02:43:38;11.48;;;9.38;;
70806;SDS011;58882;52.170;5.386;2023-05-08T02:46:52;12.13;;;8.20;;
70806;SDS011;58882;52.170;5.386;2023-05-08T02:49:44;12.52;;;8.65;;
70806;SDS011;58882;52.170;5.386;2023-05-08T02:52:37;10.60;;;7.43;;
70806;SDS011;58882;52.170;5.386;2023-05-08T02:58:41;11.05;;;7.65;;
70806;SDS011;58882;52.170;5.386;2023-05-08T03:01:32;10.02;;;7.18;;
70806;SDS011;58882;52.170;5.386;2023-05-08T03:04:33;16.25;;;11.50;;
70806;SDS011;58882;52.170;5.386;2023-05-08T03:07:18;12.82;;;7.75;;
70806;SDS011;58882;52.170;5.386;2023-05-08T03:10:09;9.90;;;7.47;;
70806;SDS011;58882;52.170;5.386;2023-05-08T03:12:51;12.52;;;8.05;;
70806;SDS011;58882;52.170;5.386;2023-05-08T03:15:52;10.70;;;7.95;;
70806;SDS011;58882;52.170;5.386;2023-05-08T03:18:35;10.82;;;7.68;;
70806;SDS011;58882;52.170;5.386;2023-05-08T03:21:27;11.57;;;7.80;;
70806;SDS011;58882;52.170;5.386;2023-05-08T03:24:02;10.55;;;7.03;;
70806;SDS011;58882;52.170;5.386;2023-05-08T03:26:58;8.98;;;6.75;;
70806;SDS011;58882;52.170;5.386;2023-05-08T03:29:32;8.43;;;6.20;;
70806;SDS011;58882;52.170;5.386;2023-05-08T03:32:29;8.30;;;6.28;;
70806;SDS011;58882;52.170;5.386;2023-05-08T03:35:12;8.68;;;6.40;;
70806;SDS011;58882;52.170;5.386;2023-05-08T03:38:01;9.80;;;6.35;;
70806;SDS011;58882;52.170;5.386;2023-05-08T03:40:35;9.75;;;6.78;;
70806;SDS011;58882;52.170;5.386;2023-05-08T03:43:30;9.40;;;6.38;;
70806;SDS011;58882;52.170;5.386;2023-05-08T03:46:04;8.48;;;5.45;;
70806;SDS011;58882;52.170;5.386;2023-05-08T03:51:32;10.15;;;6.55;;
70806;SDS011;58882;52.170;5.386;2023-05-08T03:54:29;9.88;;;7.28;;
70806;SDS011;58882;52.170;5.386;2023-05-08T03:57:10;9.57;;;6.38;;
70806;SDS011;58882;52.170;5.386;2023-05-08T04:00:00;11.13;;;7.90;;
70806;SDS011;58882;52.170;5.386;2023-05-08T04:02:49;10.18;;;7.05;;
70806;SDS011;58882;52.170;5.386;2023-05-08T04:05:50;10.65;;;6.93;;
70806;SDS011;58882;52.170;5.386;2023-05-08T04:08:49;11.25;;;7.60;;
70806;SDS011;58882;52.170;5.386;2023-05-08T04:12:21;12.18;;;7.95;;
70806;SDS011;58882;52.170;5.386;2023-05-08T04:15:09;11.98;;;8.18;;
70806;SDS011;58882;52.170;5.386;2023-05-08T04:18:15;12.18;;;7.80;;
70806;SDS011;58882;52.170;5.386;2023-05-08T04:20:59;9.75;;;7.30;;
70806;SDS011;58882;52.170;5.386;2023-05-08T04:23:56;9.50;;;6.60;;
70806;SDS011;58882;52.170;5.386;2023-05-08T04:26:44;11.05;;;7.88;;
70806;SDS011;58882;52.170;5.386;2023-05-08T04:29:39;11.30;;;7.13;;
70806;SDS011;58882;52.170;5.386;2023-05-08T04:32:19;11.25;;;7.20;;
70806;SDS011;58882;52.170;5.386;2023-05-08T04:35:14;11.38;;;7.40;;
70806;SDS011;58882;52.170;5.386;2023-05-08T04:37:54;12.15;;;8.02;;
70806;SDS011;58882;52.170;5.386;2023-05-08T04:40:42;11.55;;;7.57;;
70806;SDS011;58882;52.170;5.386;2023-05-08T04:43:16;12.10;;;8.52;;
70806;SDS011;58882;52.170;5.386;2023-05-08T04:46:11;12.07;;;8.20;;
70806;SDS011;58882;52.170;5.386;2023-05-08T04:48:53;12.63;;;8.60;;
70806;SDS011;58882;52.170;5.386;2023-05-08T04:51:40;13.20;;;7.78;;
70806;SDS011;58882;52.170;5.386;2023-05-08T04:54:20;12.60;;;8.23;;
70806;SDS011;58882;52.170;5.386;2023-05-08T04:59:47;10.65;;;7.50;;
70806;SDS011;58882;52.170;5.386;2023-05-08T05:02:44;12.18;;;7.60;;
70806;SDS011;58882;52.170;5.386;2023-05-08T05:05:24;13.35;;;8.25;;
70806;SDS011;58882;52.170;5.386;2023-05-08T05:08:18;12.10;;;7.75;;
70806;SDS011;58882;52.170;5.386;2023-05-08T05:10:52;12.80;;;8.85;;
70806;SDS011;58882;52.170;5.386;2023-05-08T05:16:19;11.95;;;8.07;;
70806;SDS011;58882;52.170;5.386;2023-05-08T05:19:13;12.98;;;8.68;;
70806;SDS011;58882;52.170;5.386;2023-05-08T05:21:46;13.48;;;8.57;;
70806;SDS011;58882;52.170;5.386;2023-05-08T05:24:40;12.60;;;8.55;;
70806;SDS011;58882;52.170;5.386;2023-05-08T05:27:20;12.68;;;9.25;;
70806;SDS011;58882;52.170;5.386;2023-05-08T05:30:07;13.73;;;8.77;;
70806;SDS011;58882;52.170;5.386;2023-05-08T05:32:47;12.60;;;8.98;;
70806;SDS011;58882;52.170;5.386;2023-05-08T05:35:41;13.13;;;8.85;;
70806;SDS011;58882;52.170;5.386;2023-05-08T05:38:21;13.90;;;9.50;;
70806;SDS011;58882;52.170;5.386;2023-05-08T05:41:16;12.82;;;8.50;;
70806;SDS011;58882;52.170;5.386;2023-05-08T05:43:49;15.45;;;10.40;;
70806;SDS011;58882;52.170;5.386;2023-05-08T05:46:43;13.82;;;9.88;;
70806;SDS011;58882;52.170;5.386;2023-05-08T05:49:17;19.80;;;11.00;;
70806;SDS011;58882;52.170;5.386;2023-05-08T05:52:11;16.25;;;10.10;;
70806;SDS011;58882;52.170;5.386;2023-05-08T05:54:52;15.88;;;9.27;;
70806;SDS011;58882;52.170;5.386;2023-05-08T05:57:39;22.00;;;9.57;;
70806;SDS011;58882;52.170;5.386;2023-05-08T06:00:12;17.02;;;10.90;;
70806;SDS011;58882;52.170;5.386;2023-05-08T06:03:07;15.20;;;10.38;;
70806;SDS011;58882;52.170;5.386;2023-05-08T06:05:49;19.13;;;11.02;;
70806;SDS011;58882;52.170;5.386;2023-05-08T06:08:36;16.02;;;10.82;;
70806;SDS011;58882;52.170;5.386;2023-05-08T06:14:03;14.68;;;10.40;;
70806;SDS011;58882;52.170;5.386;2023-05-08T06:16:43;16.33;;;10.27;;
70806;SDS011;58882;52.170;5.386;2023-05-08T06:19:30;17.33;;;11.05;;
70806;SDS011;58882;52.170;5.386;2023-05-08T06:22:10;15.68;;;9.80;;
70806;SDS011;58882;52.170;5.386;2023-05-08T06:27:45;14.93;;;10.55;;
70806;SDS011;58882;52.170;5.386;2023-05-08T06:30:32;18.13;;;11.05;;
70806;SDS011;58882;52.170;5.386;2023-05-08T06:33:13;17.83;;;12.48;;
70806;SDS011;58882;52.170;5.386;2023-05-08T06:36:00;18.23;;;12.48;;
70806;SDS011;58882;52.170;5.386;2023-05-08T06:38:40;16.85;;;12.18;;
70806;SDS011;58882;52.170;5.386;2023-05-08T06:41:27;19.10;;;12.35;;
70806;SDS011;58882;52.170;5.386;2023-05-08T06:44:07;16.00;;;11.25;;
70806;SDS011;58882;52.170;5.386;2023-05-08T06:47:01;18.10;;;12.15;;
70806;SDS011;58882;52.170;5.386;2023-05-08T06:49:41;16.40;;;12.02;;
70806;SDS011;58882;52.170;5.386;2023-05-08T06:52:28;18.23;;;13.25;;
70806;SDS011;58882;52.170;5.386;2023-05-08T06:55:01;17.60;;;11.73;;
70806;SDS011;58882;52.170;5.386;2023-05-08T06:57:55;17.85;;;12.10;;
70806;SDS011;58882;52.170;5.386;2023-05-08T07:00:35;18.55;;;12.45;;
70806;SDS011;58882;52.170;5.386;2023-05-08T07:03:22;19.50;;;11.93;;
70806;SDS011;58882;52.170;5.386;2023-05-08T07:06:02;18.50;;;12.98;;
70806;SDS011;58882;52.170;5.386;2023-05-08T07:08:49;18.10;;;12.57;;
70806;SDS011;58882;52.170;5.386;2023-05-08T07:11:29;18.00;;;12.20;;
70806;SDS011;58882;52.170;5.386;2023-05-08T07:14:16;17.83;;;11.90;;
70806;SDS011;58882;52.170;5.386;2023-05-08T07:16:56;17.80;;;13.18;;
70806;SDS011;58882;52.170;5.386;2023-05-08T07:19:48;16.42;;;11.90;;
70806;SDS011;58882;52.170;5.386;2023-05-08T07:22:29;16.13;;;11.95;;
70806;SDS011;58882;52.170;5.386;2023-05-08T07:25:16;18.73;;;13.93;;
70806;SDS011;58882;52.170;5.386;2023-05-08T07:27:56;18.77;;;14.13;;
70806;SDS011;58882;52.170;5.386;2023-05-08T07:30:50;17.20;;;12.20;;
70806;SDS011;58882;52.170;5.386;2023-05-08T07:33:30;19.38;;;13.30;;
70806;SDS011;58882;52.170;5.386;2023-05-08T07:36:17;18.52;;;13.18;;
70806;SDS011;58882;52.170;5.386;2023-05-08T07:38:57;17.40;;;12.50;;
70806;SDS011;58882;52.170;5.386;2023-05-08T07:41:44;16.35;;;12.18;;
70806;SDS011;58882;52.170;5.386;2023-05-08T07:44:24;18.48;;;13.32;;
70806;SDS011;58882;52.170;5.386;2023-05-08T07:47:25;16.60;;;11.57;;
70806;SDS011;58882;52.170;5.386;2023-05-08T07:50:00;17.35;;;12.50;;
70806;SDS011;58882;52.170;5.386;2023-05-08T07:52:55;18.40;;;13.15;;
70806;SDS011;58882;52.170;5.386;2023-05-08T07:55:35;17.48;;;12.77;;
70806;SDS011;58882;52.170;5.386;2023-05-08T07:58:22;24.23;;;14.40;;
70806;SDS011;58882;52.170;5.386;2023-05-08T08:00:55;17.92;;;12.27;;
70806;SDS011;58882;52.170;5.386;2023-05-08T08:03:49;15.55;;;11.50;;
70806;SDS011;58882;52.170;5.386;2023-05-08T08:06:22;15.20;;;11.07;;
70806;SDS011;58882;52.170;5.386;2023-05-08T08:09:16;16.08;;;11.55;;
70806;SDS011;58882;52.170;5.386;2023-05-08T08:11:49;16.05;;;11.02;;
70806;SDS011;58882;52.170;5.386;2023-05-08T08:14:43;18.55;;;13.10;;
70806;SDS011;58882;52.170;5.386;2023-05-08T08:17:23;16.50;;;11.82;;
70806;SDS011;58882;52.170;5.386;2023-05-08T08:20:10;19.50;;;14.07;;
70806;SDS011;58882;52.170;5.386;2023-05-08T08:22:44;18.52;;;14.18;;
70806;SDS011;58882;52.170;5.386;2023-05-08T08:25:38;19.15;;;14.32;;
70806;SDS011;58882;52.170;5.386;2023-05-08T08:28:25;17.98;;;14.35;;
70806;SDS011;58882;52.170;5.386;2023-05-08T08:31:05;18.98;;;13.45;;
70806;SDS011;58882;52.170;5.386;2023-05-08T08:33:52;19.08;;;13.88;;
70806;SDS011;58882;52.170;5.386;2023-05-08T08:36:25;18.60;;;13.30;;
70806;SDS011;58882;52.170;5.386;2023-05-08T08:39:19;18.00;;;13.30;;
70806;SDS011;58882;52.170;5.386;2023-05-08T08:41:53;18.67;;;13.85;;
70806;SDS011;58882;52.170;5.386;2023-05-08T08:44:47;17.40;;;12.48;;
70806;SDS011;58882;52.170;5.386;2023-05-08T08:47:27;18.20;;;13.55;;
70806;SDS011;58882;52.170;5.386;2023-05-08T08:50:15;19.20;;;13.18;;
70806;SDS011;58882;52.170;5.386;2023-05-08T08:53:10;17.63;;;12.68;;
70806;SDS011;58882;52.170;5.386;2023-05-08T08:56:13;16.73;;;12.68;;
70806;SDS011;58882;52.170;5.386;2023-05-08T08:58:55;15.90;;;11.15;;
70806;SDS011;58882;52.170;5.386;2023-05-08T09:01:47;18.27;;;13.55;;
70806;SDS011;58882;52.170;5.386;2023-05-08T09:04:31;18.95;;;12.57;;
70806;SDS011;58882;52.170;5.386;2023-05-08T09:07:18;17.73;;;12.98;;
70806;SDS011;58882;52.170;5.386;2023-05-08T09:09:59;18.48;;;13.63;;
70806;SDS011;58882;52.170;5.386;2023-05-08T09:12:46;16.63;;;12.65;;
70806;SDS011;58882;52.170;5.386;2023-05-08T09:15:27;16.95;;;12.57;;
70806;SDS011;58882;52.170;5.386;2023-05-08T09:18:21;16.02;;;11.85;;
70806;SDS011;58882;52.170;5.386;2023-05-08T09:20:54;16.08;;;12.00;;
70806;SDS011;58882;52.170;5.386;2023-05-08T09:24:07;16.77;;;11.82;;
70806;SDS011;58882;52.170;5.386;2023-05-08T09:26:40;16.95;;;13.27;;
70806;SDS011;58882;52.170;5.386;2023-05-08T09:29:34;19.55;;;14.13;;
70806;SDS011;58882;52.170;5.386;2023-05-08T09:32:17;16.98;;;12.50;;
70806;SDS011;58882;52.170;5.386;2023-05-08T09:35:04;18.73;;;12.10;;
70806;SDS011;58882;52.170;5.386;2023-05-08T09:37:40;16.75;;;12.07;;
70806;SDS011;58882;52.170;5.386;2023-05-08T09:40:36;16.98;;;12.57;;
70806;SDS011;58882;52.170;5.386;2023-05-08T09:43:12;15.82;;;12.00;;
70806;SDS011;58882;52.170;5.386;2023-05-08T09:48:55;15.65;;;11.30;;
70806;SDS011;58882;52.170;5.386;2023-05-08T09:51:50;15.27;;;11.00;;
70806;SDS011;58882;52.170;5.386;2023-05-08T09:54:27;15.88;;;11.90;;
70806;SDS011;58882;52.170;5.386;2023-05-08T09:57:21;16.67;;;11.82;;
70806;SDS011;58882;52.170;5.386;2023-05-08T10:00:07;14.63;;;10.80;;
70806;SDS011;58882;52.170;5.386;2023-05-08T10:03:05;15.75;;;11.23;;
70806;SDS011;58882;52.170;5.386;2023-05-08T10:05:38;15.38;;;11.25;;
70806;SDS011;58882;52.170;5.386;2023-05-08T10:08:33;16.42;;;12.05;;
70806;SDS011;58882;52.170;5.386;2023-05-08T10:11:12;17.25;;;12.27;;
70806;SDS011;58882;52.170;5.386;2023-05-08T10:17:06;17.58;;;11.82;;
70806;SDS011;58882;52.170;5.386;2023-05-08T10:19:43;16.40;;;12.10;;
70806;SDS011;58882;52.170;5.386;2023-05-08T10:22:41;20.38;;;14.10;;
70806;SDS011;58882;52.170;5.386;2023-05-08T10:25:22;18.27;;;12.50;;
70806;SDS011;58882;52.170;5.386;2023-05-08T10:28:31;17.23;;;12.23;;
70806;SDS011;58882;52.170;5.386;2023-05-08T10:31:28;18.77;;;13.10;;
70806;SDS011;58882;52.170;5.386;2023-05-08T10:34:13;18.40;;;13.05;;
70806;SDS011;58882;52.170;5.386;2023-05-08T10:37:07;18.13;;;12.88;;
70806;SDS011;58882;52.170;5.386;2023-05-08T10:39:48;20.75;;;14.05;;
70806;SDS011;58882;52.170;5.386;2023-05-08T10:42:37;23.65;;;15.93;;
70806;SDS011;58882;52.170;5.386;2023-05-08T10:45:18;22.23;;;13.63;;
70806;SDS011;58882;52.170;5.386;2023-05-08T10:53:58;26.70;;;15.93;;
70806;SDS011;58882;52.170;5.386;2023-05-08T10:57:07;29.33;;;19.05;;
70806;SDS011;58882;52.170;5.386;2023-05-08T10:59:56;30.38;;;17.33;;
70806;SDS011;58882;52.170;5.386;2023-05-08T11:02:36;26.65;;;17.20;;
70806;SDS011;58882;52.170;5.386;2023-05-08T11:05:23;26.75;;;18.35;;
70806;SDS011;58882;52.170;5.386;2023-05-08T11:08:18;28.13;;;17.95;;
70806;SDS011;58882;52.170;5.386;2023-05-08T11:11:04;30.27;;;20.17;;
70806;SDS011;58882;52.170;5.386;2023-05-08T11:19:58;31.65;;;20.83;;
70806;SDS011;58882;52.170;5.386;2023-05-08T11:22:33;34.67;;;21.27;;
70806;SDS011;58882;52.170;5.386;2023-05-08T11:25:41;35.13;;;20.98;;
70806;SDS011;58882;52.170;5.386;2023-05-08T11:28:35;37.65;;;22.33;;
70806;SDS011;58882;52.170;5.386;2023-05-08T11:31:17;35.30;;;21.42;;
70806;SDS011;58882;52.170;5.386;2023-05-08T11:37:22;36.50;;;22.92;;
70806;SDS011;58882;52.170;5.386;2023-05-08T11:46:32;39.92;;;23.67;;
70806;SDS011;58882;52.170;5.386;2023-05-08T11:49:17;41.38;;;24.80;;
70806;SDS011;58882;52.170;5.386;2023-05-08T11:52:17;41.00;;;25.90;;
70806;SDS011;58882;52.170;5.386;2023-05-08T11:54:59;38.50;;;25.73;;
70806;SDS011;58882;52.170;5.386;2023-05-08T11:57:55;41.33;;;26.17;;
70806;SDS011;58882;52.170;5.386;2023-05-08T12:00:35;41.53;;;26.10;;
70806;SDS011;58882;52.170;5.386;2023-05-08T12:03:27;43.08;;;26.73;;
70806;SDS011;58882;52.170;5.386;2023-05-08T12:06:21;43.42;;;26.88;;
70806;SDS011;58882;52.170;5.386;2023-05-08T12:09:02;43.30;;;26.85;;
70806;SDS011;58882;52.170;5.386;2023-05-08T12:11:56;43.35;;;26.23;;
70806;SDS011;58882;52.170;5.386;2023-05-08T12:14:36;46.75;;;28.33;;
70806;SDS011;58882;52.170;5.386;2023-05-08T12:17:23;45.30;;;28.35;;
70806;SDS011;58882;52.170;5.386;2023-05-08T12:20:16;47.15;;;28.38;;
70806;SDS011;58882;52.170;5.386;2023-05-08T12:23:04;42.33;;;27.85;;
70806;SDS011;58882;52.170;5.386;2023-05-08T12:25:44;40.80;;;27.40;;
70806;SDS011;58882;52.170;5.386;2023-05-08T12:28:34;41.28;;;26.65;;
70806;SDS011;58882;52.170;5.386;2023-05-08T12:31:14;41.17;;;25.45;;
70806;SDS011;58882;52.170;5.386;2023-05-08T12:34:01;39.58;;;25.52;;
70806;SDS011;58882;52.170;5.386;2023-05-08T12:36:43;41.47;;;26.40;;
70806;SDS011;58882;52.170;5.386;2023-05-08T12:39:37;39.03;;;26.02;;
70806;SDS011;58882;52.170;5.386;2023-05-08T12:42:39;38.60;;;25.42;;
70806;SDS011;58882;52.170;5.386;2023-05-08T12:45:32;38.08;;;25.75;;
70806;SDS011;58882;52.170;5.386;2023-05-08T12:48:14;41.15;;;25.80;;
70806;SDS011;58882;52.170;5.386;2023-05-08T12:51:02;39.40;;;24.63;;
70806;SDS011;58882;52.170;5.386;2023-05-08T12:53:44;38.38;;;24.58;;
70806;SDS011;58882;52.170;5.386;2023-05-08T12:56:42;37.90;;;23.85;;
70806;SDS011;58882;52.170;5.386;2023-05-08T12:59:26;35.13;;;23.33;;
70806;SDS011;58882;52.170;5.386;2023-05-08T13:02:21;35.67;;;22.95;;
70806;SDS011;58882;52.170;5.386;2023-05-08T13:05:09;36.95;;;23.27;;
70806;SDS011;58882;52.170;5.386;2023-05-08T13:07:59;34.17;;;22.98;;
70806;SDS011;58882;52.170;5.386;2023-05-08T13:13:40;34.70;;;22.52;;
70806;SDS011;58882;52.170;5.386;2023-05-08T13:16:20;31.98;;;21.42;;
70806;SDS011;58882;52.170;5.386;2023-05-08T13:19:07;35.65;;;21.63;;
70806;SDS011;58882;52.170;5.386;2023-05-08T13:21:40;32.80;;;21.48;;
70806;SDS011;58882;52.170;5.386;2023-05-08T13:24:34;33.58;;;20.88;;
70806;SDS011;58882;52.170;5.386;2023-05-08T13:27:07;31.23;;;21.25;;
70806;SDS011;58882;52.170;5.386;2023-05-08T13:30:01;31.35;;;20.05;;
70806;SDS011;58882;52.170;5.386;2023-05-08T13:32:34;33.65;;;20.52;;
70806;SDS011;58882;52.170;5.386;2023-05-08T13:35:28;31.98;;;20.38;;
70806;SDS011;58882;52.170;5.386;2023-05-08T13:38:08;31.70;;;20.10;;
70806;SDS011;58882;52.170;5.386;2023-05-08T13:41:02;30.30;;;19.55;;
70806;SDS011;58882;52.170;5.386;2023-05-08T13:43:42;31.10;;;19.88;;
70806;SDS011;58882;52.170;5.386;2023-05-08T13:46:36;31.13;;;18.77;;
70806;SDS011;58882;52.170;5.386;2023-05-08T13:49:09;30.27;;;19.60;;
70806;SDS011;58882;52.170;5.386;2023-05-08T13:52:04;30.02;;;19.95;;
70806;SDS011;58882;52.170;5.386;2023-05-08T13:54:44;31.40;;;19.98;;
70806;SDS011;58882;52.170;5.386;2023-05-08T13:57:31;29.90;;;19.23;;
70806;SDS011;58882;52.170;5.386;2023-05-08T14:00:11;30.73;;;19.90;;
70806;SDS011;58882;52.170;5.386;2023-05-08T14:02:59;29.15;;;18.83;;
70806;SDS011;58882;52.170;5.386;2023-05-08T14:05:39;29.25;;;19.00;;
70806;SDS011;58882;52.170;5.386;2023-05-08T14:08:26;29.67;;;19.25;;
70806;SDS011;58882;52.170;5.386;2023-05-08T14:11:09;30.10;;;19.40;;
70806;SDS011;58882;52.170;5.386;2023-05-08T14:13:56;30.38;;;19.45;;
70806;SDS011;58882;52.170;5.386;2023-05-08T14:16:36;30.40;;;19.60;;
70806;SDS011;58882;52.170;5.386;2023-05-08T14:19:30;30.27;;;19.73;;
70806;SDS011;58882;52.170;5.386;2023-05-08T14:22:11;31.40;;;20.05;;
70806;SDS011;58882;52.170;5.386;2023-05-08T14:25:05;29.02;;;19.60;;
70806;SDS011;58882;52.170;5.386;2023-05-08T14:27:39;29.30;;;18.05;;
70806;SDS011;58882;52.170;5.386;2023-05-08T14:30:33;30.60;;;19.38;;
70806;SDS011;58882;52.170;5.386;2023-05-08T14:33:13;32.00;;;20.25;;
70806;SDS011;58882;52.170;5.386;2023-05-08T14:36:00;29.58;;;18.02;;
70806;SDS011;58882;52.170;5.386;2023-05-08T14:38:40;31.00;;;18.40;;
70806;SDS011;58882;52.170;5.386;2023-05-08T14:41:27;29.33;;;18.10;;
70806;SDS011;58882;52.170;5.386;2023-05-08T14:44:01;29.65;;;18.25;;
70806;SDS011;58882;52.170;5.386;2023-05-08T14:46:55;28.25;;;17.48;;
70806;SDS011;58882;52.170;5.386;2023-05-08T14:49:28;30.27;;;17.92;;
70806;SDS011;58882;52.170;5.386;2023-05-08T14:52:22;30.25;;;17.60;;
70806;SDS011;58882;52.170;5.386;2023-05-08T14:54:55;27.55;;;17.38;;
70806;SDS011;58882;52.170;5.386;2023-05-08T14:57:49;29.52;;;17.48;;
70806;SDS011;58882;52.170;5.386;2023-05-08T15:00:22;28.42;;;17.20;;
70806;SDS011;58882;52.170;5.386;2023-05-08T15:03:16;29.10;;;17.48;;
70806;SDS011;58882;52.170;5.386;2023-05-08T15:05:49;29.80;;;17.95;;
70806;SDS011;58882;52.170;5.386;2023-05-08T15:08:43;27.15;;;17.35;;
70806;SDS011;58882;52.170;5.386;2023-05-08T15:11:16;30.15;;;17.00;;
70806;SDS011;58882;52.170;5.386;2023-05-08T15:14:10;27.00;;;16.42;;
70806;SDS011;58882;52.170;5.386;2023-05-08T15:16:43;27.35;;;17.15;;
70806;SDS011;58882;52.170;5.386;2023-05-08T15:19:38;28.48;;;16.92;;
70806;SDS011;58882;52.170;5.386;2023-05-08T15:22:11;30.63;;;17.13;;
70806;SDS011;58882;52.170;5.386;2023-05-08T15:25:07;27.40;;;16.42;;
70806;SDS011;58882;52.170;5.386;2023-05-08T15:27:40;27.60;;;17.17;;
70806;SDS011;58882;52.170;5.386;2023-05-08T15:30:39;26.83;;;16.75;;
70806;SDS011;58882;52.170;5.386;2023-05-08T15:33:13;27.45;;;16.42;;
70806;SDS011;58882;52.170;5.386;2023-05-08T15:36:07;26.73;;;17.13;;
70806;SDS011;58882;52.170;5.386;2023-05-08T15:38:47;29.20;;;17.02;;
70806;SDS011;58882;52.170;5.386;2023-05-08T15:41:34;27.88;;;16.63;;
70806;SDS011;58882;52.170;5.386;2023-05-08T15:44:17;27.17;;;16.70;;
70806;SDS011;58882;52.170;5.386;2023-05-08T15:47:12;26.25;;;17.05;;
70806;SDS011;58882;52.170;5.386;2023-05-08T15:49:52;27.67;;;16.95;;
70806;SDS011;58882;52.170;5.386;2023-05-08T15:52:47;25.50;;;16.73;;
70806;SDS011;58882;52.170;5.386;2023-05-08T15:55:20;26.92;;;16.85;;
70806;SDS011;58882;52.170;5.386;2023-05-08T15:58:14;28.75;;;16.73;;
70806;SDS011;58882;52.170;5.386;2023-05-08T16:00:54;25.38;;;16.73;;
70806;SDS011;58882;52.170;5.386;2023-05-08T16:03:43;26.95;;;17.17;;
70806;SDS011;58882;52.170;5.386;2023-05-08T16:06:23;28.63;;;17.38;;
70806;SDS011;58882;52.170;5.386;2023-05-08T16:09:18;26.20;;;16.58;;
70806;SDS011;58882;52.170;5.386;2023-05-08T16:11:58;26.33;;;16.20;;
70806;SDS011;58882;52.170;5.386;2023-05-08T16:14:45;27.00;;;16.23;;
70806;SDS011;58882;52.170;5.386;2023-05-08T16:17:18;28.23;;;17.33;;
70806;SDS011;58882;52.170;5.386;2023-05-08T16:20:12;26.10;;;16.50;;
70806;SDS011;58882;52.170;5.386;2023-05-08T16:22:45;24.15;;;16.02;;
70806;SDS011;58882;52.170;5.386;2023-05-08T16:25:40;27.05;;;17.02;;
70806;SDS011;58882;52.170;5.386;2023-05-08T16:28:28;27.35;;;17.05;;
70806;SDS011;58882;52.170;5.386;2023-05-08T16:31:22;27.77;;;16.65;;
70806;SDS011;58882;52.170;5.386;2023-05-08T16:33:55;24.38;;;15.77;;
70806;SDS011;58882;52.170;5.386;2023-05-08T16:36:49;27.92;;;16.67;;
70806;SDS011;58882;52.170;5.386;2023-05-08T16:39:22;28.17;;;17.63;;
70806;SDS011;58882;52.170;5.386;2023-05-08T16:42:16;29.92;;;17.55;;
70806;SDS011;58882;52.170;5.386;2023-05-08T16:44:56;32.08;;;18.15;;
70806;SDS011;58882;52.170;5.386;2023-05-08T16:47:43;36.63;;;17.60;;
70806;SDS011;58882;52.170;5.386;2023-05-08T16:50:23;31.67;;;16.85;;
70806;SDS011;58882;52.170;5.386;2023-05-08T16:53:17;41.67;;;19.85;;
70806;SDS011;58882;52.170;5.386;2023-05-08T16:55:50;35.42;;;17.63;;
70806;SDS011;58882;52.170;5.386;2023-05-08T16:58:44;31.65;;;17.85;;
70806;SDS011;58882;52.170;5.386;2023-05-08T17:01:24;35.78;;;19.75;;
70806;SDS011;58882;52.170;5.386;2023-05-08T17:04:18;34.35;;;18.83;;
70806;SDS011;58882;52.170;5.386;2023-05-08T17:06:51;36.35;;;19.55;;
70806;SDS011;58882;52.170;5.386;2023-05-08T17:09:45;37.08;;;19.67;;
70806;SDS011;58882;52.170;5.386;2023-05-08T17:12:27;36.33;;;18.90;;
70806;SDS011;58882;52.170;5.386;2023-05-08T17:15:14;41.45;;;20.95;;
70806;SDS011;58882;52.170;5.386;2023-05-08T17:17:54;49.00;;;22.95;;
70806;SDS011;58882;52.170;5.386;2023-05-08T17:20:41;48.15;;;23.88;;
70806;SDS011;58882;52.170;5.386;2023-05-08T17:23:21;47.95;;;23.48;;
70806;SDS011;58882;52.170;5.386;2023-05-08T17:26:15;49.00;;;22.77;;
70806;SDS011;58882;52.170;5.386;2023-05-08T17:28:48;49.70;;;23.27;;
70806;SDS011;58882;52.170;5.386;2023-05-08T17:31:42;58.05;;;25.38;;
70806;SDS011;58882;52.170;5.386;2023-05-08T17:34:22;49.35;;;23.65;;